Time;durP1;ratioP1;P1;durP2;ratioP2;P2;SDS_P1;SDS_P2;PMS_P1;PMS_P2;Temp;Humidity;BMP_temperature;BMP_pressure;BME280_temperature;BME280_humidity;BME280_pressure;Samples;Min_cycle;Max_cycle;Signal;HPM_P1;HPM_P2
2023/08/30 00:01:21;;;;;;;6.57;3.20;;;16.50;79.30;;;;;;5073037;28;20511;-79
2023/08/30 00:03:50;;;;;;;5.60;3.13;;;16.50;79.30;;;;;;5047870;28;20958;-80
2023/08/30 00:06:20;;;;;;;5.30;2.60;;;16.50;79.30;;;;;;5079402;28;20460;-79
2023/08/30 00:08:56;;;;;;;5.93;3.10;;;16.50;79.20;;;;;;5044773;28;20521;-80
2023/08/30 00:11:24;;;;;;;6.67;2.37;;;16.50;79.20;;;;;;5061443;28;20552;-81
2023/08/30 00:13:53;;;;;;;5.10;2.53;;;16.50;79.20;;;;;;5056853;28;20460;-80
2023/08/30 00:16:23;;;;;;;4.40;2.27;;;16.50;79.20;;;;;;5058639;28;20864;-81
2023/08/30 00:18:53;;;;;;;4.77;2.67;;;16.50;79.10;;;;;;5061804;28;20568;-80
2023/08/30 00:21:21;;;;;;;10.33;2.83;;;16.50;79.00;;;;;;5062279;28;20478;-81
2023/08/30 00:23:51;;;;;;;5.57;2.97;;;16.50;79.00;;;;;;5061471;28;20456;-79
2023/08/30 00:26:21;;;;;;;6.00;3.10;;;16.40;79.00;;;;;;5062123;28;20457;-80
2023/08/30 00:28:51;;;;;;;5.93;2.90;;;16.40;79.00;;;;;;5065000;28;20460;-80
2023/08/30 00:31:22;;;;;;;5.30;3.10;;;16.40;78.90;;;;;;5061108;28;20842;-80
2023/08/30 00:33:52;;;;;;;5.73;3.40;;;16.40;78.90;;;;;;5074906;28;20462;-80
2023/08/30 00:36:22;;;;;;;6.20;3.27;;;16.40;78.90;;;;;;5077885;28;20474;-79
2023/08/30 00:38:52;;;;;;;5.70;3.37;;;16.30;78.90;;;;;;5078046;28;20491;-80
2023/08/30 00:41:23;;;;;;;7.27;3.67;;;16.30;78.90;;;;;;5102498;28;21040;-80
2023/08/30 00:43:52;;;;;;;9.50;3.70;;;16.30;78.90;;;;;;5082451;28;21164;-79
2023/08/30 00:46:20;;;;;;;8.43;3.50;;;16.30;78.90;;;;;;5078563;28;20800;-79
2023/08/30 00:48:51;;;;;;;5.03;2.90;;;16.20;78.90;;;;;;5063021;28;20546;-81
2023/08/30 00:51:20;;;;;;;6.20;3.30;;;16.20;79.10;;;;;;5082134;28;20452;-81
2023/08/30 00:53:51;;;;;;;5.13;2.87;;;16.20;79.10;;;;;;5077671;28;20457;-81
2023/08/30 00:56:19;;;;;;;5.40;2.90;;;16.20;79.10;;;;;;5085202;28;20474;-81
2023/08/30 00:58:49;;;;;;;7.53;3.00;;;16.30;79.10;;;;;;5080971;28;20570;-82
2023/08/30 01:01:18;;;;;;;5.87;2.73;;;16.20;79.00;;;;;;5083668;28;20480;-82
2023/08/30 01:03:46;;;;;;;6.10;2.73;;;16.20;79.00;;;;;;5084337;28;20537;-81
2023/08/30 01:06:14;;;;;;;5.20;2.60;;;16.20;78.90;;;;;;5083585;28;20465;-81
2023/08/30 01:08:43;;;;;;;6.03;2.70;;;16.20;78.90;;;;;;5089156;28;20545;-80
2023/08/30 01:11:19;;;;;;;5.23;2.50;;;16.20;78.90;;;;;;5082165;28;20817;-79
2023/08/30 01:13:54;;;;;;;5.27;2.93;;;16.10;78.80;;;;;;5078290;28;20497;-81
2023/08/30 01:16:24;;;;;;;5.27;2.90;;;16.10;78.80;;;;;;5091933;28;20472;-79
2023/08/30 01:18:57;;;;;;;12.50;3.50;;;16.10;78.70;;;;;;5080488;28;20458;-81
2023/08/30 01:21:33;;;;;;;7.83;2.87;;;16.10;78.70;;;;;;5083461;28;20459;-80
2023/08/30 01:24:08;;;;;;;5.70;3.00;;;16.00;78.60;;;;;;5087013;28;20465;-81
2023/08/30 01:26:45;;;;;;;6.50;2.97;;;16.00;78.80;;;;;;5098696;28;20444;-81
2023/08/30 01:29:19;;;;;;;6.10;3.27;;;16.00;78.80;;;;;;5087276;28;20499;-77
2023/08/30 01:31:49;;;;;;;6.80;3.57;;;16.00;78.80;;;;;;5081223;28;20488;-81
2023/08/30 01:34:17;;;;;;;5.50;3.10;;;15.90;78.80;;;;;;5083252;28;20558;-79
2023/08/30 01:36:46;;;;;;;9.63;3.37;;;15.90;78.70;;;;;;5083456;28;20474;-82
2023/08/30 01:39:18;;;;;;;8.60;3.87;;;15.90;78.70;;;;;;5087524;28;20499;-79
2023/08/30 01:41:48;;;;;;;6.37;4.00;;;15.90;78.80;;;;;;5088458;28;20899;-80
2023/08/30 01:44:19;;;;;;;7.60;3.90;;;15.90;78.90;;;;;;5088560;28;20469;-81
2023/08/30 01:46:48;;;;;;;6.70;3.87;;;15.90;78.90;;;;;;5075653;28;20490;-79
2023/08/30 01:49:16;;;;;;;6.80;3.37;;;15.90;78.90;;;;;;5086611;28;20497;-81
2023/08/30 01:51:45;;;;;;;6.50;3.70;;;15.90;78.90;;;;;;5087605;28;20492;-83
2023/08/30 01:54:18;;;;;;;6.53;3.50;;;15.90;78.80;;;;;;5088582;28;20519;-81
2023/08/30 01:56:47;;;;;;;8.03;3.90;;;15.90;78.80;;;;;;5086569;28;20485;-82
2023/08/30 01:59:19;;;;;;;9.43;4.13;;;15.80;78.70;;;;;;5087165;28;20731;-80
2023/08/30 02:01:47;;;;;;;5.97;3.37;;;15.80;78.80;;;;;;5102967;28;20941;-81
2023/08/30 02:04:15;;;;;;;6.20;3.13;;;15.80;78.90;;;;;;5086813;28;20462;-79
2023/08/30 02:06:58;;;;;;;7.00;3.57;;;15.80;78.90;;;;;;5081764;28;20508;-80
2023/08/30 02:09:33;;;;;;;10.57;3.90;;;15.80;78.90;;;;;;5083909;28;20514;-82
2023/08/30 02:12:05;;;;;;;9.67;4.30;;;15.80;78.80;;;;;;5082837;28;20457;-79
2023/08/30 02:14:36;;;;;;;8.80;3.93;;;15.70;78.80;;;;;;5084533;28;20455;-80
2023/08/30 02:17:04;;;;;;;11.40;4.10;;;15.70;78.80;;;;;;5084764;28;20469;-80
2023/08/30 02:19:34;;;;;;;10.77;3.60;;;15.70;78.80;;;;;;5089901;28;20460;-79
2023/08/30 02:22:02;;;;;;;6.23;3.90;;;15.70;78.90;;;;;;5100586;28;20450;-78
2023/08/30 02:24:30;;;;;;;7.50;3.77;;;15.70;79.00;;;;;;5084901;28;20977;-78
2023/08/30 02:26:58;;;;;;;7.30;3.97;;;15.60;78.80;;;;;;5083780;28;20486;-80
2023/08/30 02:29:26;;;;;;;10.93;4.50;;;15.60;79.00;;;;;;5086196;28;20614;-80
2023/08/30 02:31:55;;;;;;;9.10;4.40;;;15.60;79.00;;;;;;5077410;28;20491;-81
2023/08/30 02:34:23;;;;;;;9.20;4.33;;;15.60;79.00;;;;;;5068325;28;20456;-81
2023/08/30 02:36:53;;;;;;;6.53;3.80;;;15.60;79.00;;;;;;5069822;28;20479;-80
2023/08/30 02:39:21;;;;;;;7.20;4.00;;;15.60;79.10;;;;;;5069496;28;21060;-80
2023/08/30 02:41:49;;;;;;;9.07;4.93;;;15.60;79.20;;;;;;5067551;28;20456;-82
2023/08/30 02:44:17;;;;;;;9.40;3.87;;;15.60;79.20;;;;;;5068462;28;20447;-81
2023/08/30 02:46:45;;;;;;;9.77;4.17;;;15.60;79.30;;;;;;5066769;28;20453;-79
2023/08/30 02:49:14;;;;;;;10.17;4.40;;;15.60;79.40;;;;;;5066531;28;20465;-81
2023/08/30 02:51:42;;;;;;;7.43;4.30;;;15.70;79.40;;;;;;5063653;28;20463;-81
2023/08/30 02:54:12;;;;;;;7.13;4.40;;;15.70;79.40;;;;;;5066304;28;20803;-81
2023/08/30 02:56:41;;;;;;;9.90;4.73;;;15.70;79.40;;;;;;5075565;28;20877;-80
2023/08/30 02:59:09;;;;;;;8.20;4.10;;;15.70;79.50;;;;;;5072273;28;20463;-80
2023/08/30 03:01:37;;;;;;;7.60;4.53;;;15.70;79.50;;;;;;5074369;28;21068;-81
2023/08/30 03:04:05;;;;;;;8.17;4.20;;;15.70;79.50;;;;;;5085560;28;20457;-79
2023/08/30 03:06:35;;;;;;;10.83;3.90;;;15.70;79.60;;;;;;5077062;28;20480;-79
2023/08/30 03:09:06;;;;;;;8.60;4.47;;;15.70;79.60;;;;;;5081966;28;20459;-81
2023/08/30 03:11:36;;;;;;;6.30;4.10;;;15.80;79.70;;;;;;5083767;28;21111;-80
2023/08/30 03:14:05;;;;;;;8.47;4.20;;;15.80;79.80;;;;;;5079707;28;20461;-80
2023/08/30 03:16:33;;;;;;;6.20;3.90;;;15.80;79.80;;;;;;5083322;28;20526;-80
2023/08/30 03:19:01;;;;;;;7.20;4.90;;;15.90;79.80;;;;;;5078237;28;20697;-80
2023/08/30 03:21:30;;;;;;;10.00;4.10;;;15.90;79.70;;;;;;5096817;28;20461;-81
2023/08/30 03:24:00;;;;;;;7.03;3.83;;;15.90;79.70;;;;;;5087860;28;20498;-78
2023/08/30 03:26:29;;;;;;;8.00;4.40;;;15.90;79.70;;;;;;5086016;28;20464;-80
2023/08/30 03:28:57;;;;;;;8.37;4.23;;;15.90;79.80;;;;;;5081821;28;20575;-80
2023/08/30 03:31:26;;;;;;;10.53;4.70;;;15.90;79.80;;;;;;5083959;28;21094;-80
2023/08/30 03:33:55;;;;;;;5.93;4.20;;;15.90;79.80;;;;;;5089872;28;20473;-78
2023/08/30 03:36:23;;;;;;;13.07;9.77;;;15.90;79.80;;;;;;5083638;28;20513;-80
2023/08/30 03:38:51;;;;;;;12.03;8.00;;;15.90;79.80;;;;;;5089978;28;20518;-79
2023/08/30 03:41:20;;;;;;;7.90;5.40;;;16.00;79.80;;;;;;5097299;28;20460;-80
2023/08/30 03:43:48;;;;;;;8.40;4.13;;;16.00;79.90;;;;;;5095544;28;20459;-81
2023/08/30 03:46:16;;;;;;;10.50;4.40;;;16.00;79.90;;;;;;5083282;28;20522;-80
2023/08/30 03:48:44;;;;;;;5.90;3.37;;;16.00;79.80;;;;;;5083584;28;20945;-81
2023/08/30 03:51:12;;;;;;;7.73;3.40;;;16.00;79.90;;;;;;5083806;28;20552;-81
2023/08/30 03:53:41;;;;;;;6.37;4.17;;;16.00;79.90;;;;;;5086165;28;20466;-80
2023/08/30 03:56:09;;;;;;;5.30;3.30;;;16.10;79.90;;;;;;5086541;28;20550;-81
2023/08/30 03:58:39;;;;;;;6.07;3.70;;;16.10;79.90;;;;;;5086353;28;20478;-80
2023/08/30 04:01:07;;;;;;;7.00;4.00;;;16.10;79.90;;;;;;5074934;28;20558;-82
2023/08/30 04:03:36;;;;;;;10.63;4.07;;;16.10;79.90;;;;;;5064286;28;20456;-80
2023/08/30 04:06:04;;;;;;;7.50;4.30;;;16.10;79.90;;;;;;5059298;28;20627;-82
2023/08/30 04:08:33;;;;;;;12.63;4.23;;;16.00;79.90;;;;;;5059702;28;20455;-81
2023/08/30 04:11:00;;;;;;;6.03;3.73;;;16.00;79.90;;;;;;5060028;28;20470;-80
2023/08/30 04:13:30;;;;;;;8.70;3.37;;;16.00;80.00;;;;;;5064598;28;20464;-80
2023/08/30 04:15:59;;;;;;;11.00;3.90;;;16.00;80.10;;;;;;5065944;28;20487;-80
2023/08/30 04:18:27;;;;;;;6.40;3.57;;;16.00;80.10;;;;;;5062541;28;20579;-80
2023/08/30 04:20:57;;;;;;;5.77;3.70;;;16.00;80.10;;;;;;5064428;28;20461;-80
2023/08/30 04:23:26;;;;;;;9.40;4.40;;;16.00;80.00;;;;;;5061255;28;20464;-82
2023/08/30 04:25:54;;;;;;;6.17;4.27;;;16.00;80.00;;;;;;5065449;28;20496;-80
2023/08/30 04:28:22;;;;;;;6.73;3.77;;;16.00;80.10;;;;;;5078700;28;20474;-79
2023/08/30 04:30:54;;;;;;;9.70;4.93;;;16.00;80.10;;;;;;5065190;28;20477;-78
2023/08/30 04:33:24;;;;;;;6.40;4.50;;;16.00;80.10;;;;;;5064788;28;20471;-78
2023/08/30 04:35:52;;;;;;;12.97;4.90;;;16.00;80.10;;;;;;5067499;28;20819;-79
2023/08/30 04:38:20;;;;;;;6.57;3.90;;;16.00;80.00;;;;;;5062592;28;20471;-80
2023/08/30 04:40:49;;;;;;;7.60;4.17;;;16.00;80.00;;;;;;5063454;28;20470;-80
2023/08/30 04:43:18;;;;;;;8.03;4.73;;;16.00;80.10;;;;;;5062130;28;20466;-80
2023/08/30 04:45:48;;;;;;;10.90;5.20;;;16.00;80.20;;;;;;5082364;28;20463;-77
2023/08/30 04:48:18;;;;;;;7.27;3.73;;;16.00;80.20;;;;;;5063988;28;20460;-81
2023/08/30 04:50:49;;;;;;;11.03;4.70;;;16.00;80.20;;;;;;5063627;28;20945;-82
2023/08/30 04:53:17;;;;;;;5.50;3.87;;;16.00;80.30;;;;;;5067043;28;20550;-78
2023/08/30 04:55:45;;;;;;;7.63;4.20;;;16.00;80.30;;;;;;5066284;28;20455;-78
2023/08/30 04:58:15;;;;;;;6.50;3.67;;;16.00;80.30;;;;;;5064592;28;20470;-79
2023/08/30 05:00:44;;;;;;;7.70;4.20;;;16.00;80.30;;;;;;5065218;28;20496;-81
2023/08/30 05:03:12;;;;;;;8.83;4.10;;;16.10;80.30;;;;;;5070302;28;21181;-79
2023/08/30 05:05:40;;;;;;;10.23;4.13;;;16.00;80.30;;;;;;5067999;28;20520;-80
2023/08/30 05:08:11;;;;;;;8.07;4.20;;;16.00;80.40;;;;;;5064201;28;20517;-80
2023/08/30 05:10:40;;;;;;;8.13;3.77;;;16.10;80.40;;;;;;5066278;28;20483;-81
2023/08/30 05:13:08;;;;;;;8.77;4.53;;;16.10;80.50;;;;;;5064130;28;20511;-79
2023/08/30 05:15:36;;;;;;;9.83;4.63;;;16.10;80.50;;;;;;5068553;28;20950;-81
2023/08/30 05:18:05;;;;;;;12.50;5.00;;;16.10;80.50;;;;;;5064308;28;21517;-79
2023/08/30 05:20:33;;;;;;;8.30;4.90;;;16.10;80.50;;;;;;5065132;28;20513;-78
2023/08/30 05:23:01;;;;;;;8.67;5.20;;;16.10;80.50;;;;;;5079536;28;20460;-79
2023/08/30 05:25:30;;;;;;;11.33;4.97;;;16.10;80.50;;;;;;5063195;28;20456;-80
2023/08/30 05:27:59;;;;;;;8.27;4.80;;;16.10;80.60;;;;;;5067410;28;20513;-80
2023/08/30 05:30:26;;;;;;;6.90;4.50;;;16.10;80.70;;;;;;5045946;28;20475;-81
2023/08/30 05:33:00;;;;;;;7.00;4.47;;;16.10;80.70;;;;;;5061232;28;20873;-79
2023/08/30 05:35:48;;;;;;;9.63;5.53;;;16.20;80.80;;;;;;5067065;28;20908;-79
2023/08/30 05:38:46;;;;;;;6.50;4.13;;;16.20;80.80;;;;;;5053851;28;20614;-79
2023/08/30 05:41:24;;;;;;;7.33;5.43;;;16.20;80.80;;;;;;5065971;28;20470;-79
2023/08/30 05:43:53;;;;;;;7.10;4.70;;;16.20;80.80;;;;;;5071572;28;20468;-80
2023/08/30 05:46:23;;;;;;;9.80;5.00;;;16.30;80.70;;;;;;5070582;28;20451;-80
2023/08/30 05:48:51;;;;;;;12.63;5.50;;;16.30;80.80;;;;;;5064794;28;20989;-79
2023/08/30 05:51:20;;;;;;;8.77;5.27;;;16.30;80.80;;;;;;5071222;28;20491;-79
2023/08/30 05:53:48;;;;;;;9.73;5.73;;;16.30;80.80;;;;;;5068048;28;20539;-79
2023/08/30 05:56:17;;;;;;;10.60;6.97;;;16.30;80.80;;;;;;5065820;28;20480;-77
2023/08/30 05:58:46;;;;;;;7.93;6.20;;;16.30;80.80;;;;;;5079410;28;20550;-78
2023/08/30 06:01:15;;;;;;;9.33;6.57;;;16.30;80.80;;;;;;5073851;28;21042;-79
2023/08/30 06:03:43;;;;;;;11.80;6.80;;;16.30;80.90;;;;;;5088757;28;20537;-77
2023/08/30 06:06:11;;;;;;;10.17;6.67;;;16.30;80.90;;;;;;5088116;28;20463;-78
2023/08/30 06:08:39;;;;;;;10.00;6.90;;;16.40;81.00;;;;;;5087827;28;20470;-80
2023/08/30 06:11:07;;;;;;;10.60;7.87;;;16.40;81.00;;;;;;5085007;28;20538;-78
2023/08/30 06:13:36;;;;;;;12.43;8.77;;;16.40;81.00;;;;;;5086836;28;20455;-78
2023/08/30 06:16:05;;;;;;;12.87;8.73;;;16.40;80.90;;;;;;5087223;28;20450;-79
2023/08/30 06:18:33;;;;;;;13.10;10.23;;;16.40;81.00;;;;;;5087025;28;20490;-80
2023/08/30 06:21:02;;;;;;;11.17;9.13;;;16.30;81.10;;;;;;5082861;28;20958;-78
2023/08/30 06:23:30;;;;;;;13.23;10.73;;;16.30;81.10;;;;;;5083675;28;20867;-80
2023/08/30 06:25:58;;;;;;;14.23;11.13;;;16.30;81.30;;;;;;5082583;28;20462;-79
2023/08/30 06:28:27;;;;;;;16.93;10.90;;;16.30;81.40;;;;;;5086152;28;20453;-78
2023/08/30 06:30:55;;;;;;;13.80;11.23;;;16.30;81.60;;;;;;5080950;28;20556;-79
2023/08/30 06:33:24;;;;;;;13.13;10.57;;;16.30;81.90;;;;;;5086559;28;21009;-83
2023/08/30 06:35:53;;;;;;;16.83;12.43;;;16.40;82.00;;;;;;5104012;28;20444;-80
2023/08/30 06:38:21;;;;;;;14.50;11.67;;;16.40;81.90;;;;;;5084697;28;20451;-78
2023/08/30 06:40:50;;;;;;;11.83;9.80;;;16.50;81.90;;;;;;5085921;28;21284;-80
2023/08/30 06:43:18;;;;;;;14.50;11.40;;;16.50;82.10;;;;;;5087857;28;20459;-78
2023/08/30 06:45:47;;;;;;;15.10;10.80;;;16.60;82.10;;;;;;5087888;28;20468;-81
2023/08/30 06:48:15;;;;;;;12.50;10.50;;;16.70;82.10;;;;;;5087188;28;20463;-79
2023/08/30 06:50:44;;;;;;;16.00;12.10;;;16.70;82.10;;;;;;5086017;28;20463;-79
2023/08/30 06:53:12;;;;;;;15.87;13.60;;;16.80;82.10;;;;;;5106853;28;20544;-80
2023/08/30 06:55:40;;;;;;;16.47;12.97;;;16.90;82.10;;;;;;5087738;28;20492;-80
2023/08/30 06:58:08;;;;;;;18.10;14.10;;;16.90;82.10;;;;;;5091079;28;20585;-77
2023/08/30 07:00:36;;;;;;;15.13;12.77;;;16.90;82.20;;;;;;5088225;28;20506;-78
2023/08/30 07:03:05;;;;;;;15.60;13.90;;;17.00;82.10;;;;;;5081922;28;20464;-79
2023/08/30 07:05:33;;;;;;;18.93;14.23;;;17.00;82.10;;;;;;5085826;28;20516;-79
2023/08/30 07:08:02;;;;;;;17.90;13.27;;;17.00;82.20;;;;;;5077781;28;20460;-78
2023/08/30 07:10:30;;;;;;;16.53;13.07;;;17.10;82.30;;;;;;5083661;28;20447;-81
2023/08/30 07:12:58;;;;;;;14.70;12.80;;;17.10;82.30;;;;;;5086712;28;20447;-77
2023/08/30 07:15:26;;;;;;;16.93;13.70;;;17.20;82.30;;;;;;5076478;28;20469;-81
2023/08/30 07:17:56;;;;;;;16.93;14.10;;;17.20;82.20;;;;;;5087347;28;20448;-78
2023/08/30 07:20:26;;;;;;;18.23;13.10;;;17.30;82.20;;;;;;5086302;28;20484;-81
2023/08/30 07:22:54;;;;;;;18.07;14.57;;;17.30;82.20;;;;;;5085935;28;20436;-78
2023/08/30 07:25:24;;;;;;;17.87;14.57;;;17.40;82.20;;;;;;5084059;28;20459;-79
2023/08/30 07:27:52;;;;;;;19.60;16.23;;;17.40;82.00;;;;;;5081039;28;20460;-78
2023/08/30 07:30:20;;;;;;;18.57;15.93;;;17.40;82.00;;;;;;5078898;28;20447;-80
2023/08/30 07:32:48;;;;;;;19.37;15.17;;;17.50;82.10;;;;;;5083421;28;21081;-80
2023/08/30 07:35:17;;;;;;;18.93;16.57;;;17.50;82.10;;;;;;5084621;28;20457;-78
2023/08/30 07:37:45;;;;;;;19.73;16.27;;;17.50;82.20;;;;;;5088641;28;20531;-80
2023/08/30 07:40:14;;;;;;;17.87;15.73;;;17.50;82.20;;;;;;5087170;28;20475;-79
2023/08/30 07:42:44;;;;;;;21.47;17.60;;;17.60;82.20;;;;;;5083489;28;20454;-80
2023/08/30 07:45:13;;;;;;;20.20;16.90;;;17.60;82.20;;;;;;5085518;28;20457;-79
2023/08/30 07:47:41;;;;;;;23.90;16.80;;;17.70;82.20;;;;;;5084521;28;20441;-78
2023/08/30 07:50:10;;;;;;;20.00;17.37;;;17.70;82.30;;;;;;5082338;28;20837;-81
2023/08/30 07:52:38;;;;;;;21.10;18.03;;;17.80;82.30;;;;;;5083618;28;20503;-79
2023/08/30 07:55:14;;;;;;;24.07;19.40;;;17.80;82.20;;;;;;5083689;28;21022;-79
2023/08/30 07:57:44;;;;;;;23.33;19.37;;;17.90;82.30;;;;;;5079371;28;20971;-80
2023/08/30 08:00:13;;;;;;;22.73;18.70;;;18.00;82.20;;;;;;5084976;28;20482;-80
2023/08/30 08:02:45;;;;;;;27.73;20.40;;;18.00;82.20;;;;;;5079430;28;20445;-80
2023/08/30 08:05:13;;;;;;;25.77;20.37;;;18.00;82.20;;;;;;5082873;28;20453;-82
2023/08/30 08:07:44;;;;;;;24.07;20.00;;;18.10;82.20;;;;;;5086335;28;20467;-79
2023/08/30 08:10:12;;;;;;;23.10;19.10;;;18.10;82.00;;;;;;5082350;28;21000;-79
2023/08/30 08:12:40;;;;;;;23.43;19.97;;;18.20;81.90;;;;;;5082890;28;20543;-78
2023/08/30 08:15:10;;;;;;;26.27;19.33;;;18.20;81.90;;;;;;5081887;28;20449;-80
2023/08/30 08:17:38;;;;;;;23.40;19.80;;;18.20;81.90;;;;;;5084225;28;20445;-80
2023/08/30 08:20:07;;;;;;;25.20;20.90;;;18.30;81.90;;;;;;5083759;28;20484;-80
2023/08/30 08:22:35;;;;;;;23.97;20.57;;;18.30;81.90;;;;;;5084248;28;20753;-80
2023/08/30 08:25:04;;;;;;;22.37;19.80;;;18.40;81.90;;;;;;5083555;28;20890;-80
2023/08/30 08:27:32;;;;;;;26.70;19.27;;;18.40;81.90;;;;;;5083578;28;20458;-79
2023/08/30 08:29:59;;;;;;;22.07;17.70;;;18.40;81.90;;;;;;5078135;28;20502;-80
2023/08/30 08:32:30;;;;;;;25.50;18.67;;;18.50;81.90;;;;;;5071564;28;21124;-78
2023/08/30 08:34:58;;;;;;;23.30;19.70;;;18.50;81.80;;;;;;5069323;28;20475;-79
2023/08/30 08:37:26;;;;;;;23.77;19.60;;;18.60;81.60;;;;;;5073227;28;20454;-80
2023/08/30 08:39:54;;;;;;;22.60;18.40;;;18.60;81.60;;;;;;5063465;28;20580;-79
2023/08/30 08:42:23;;;;;;;28.23;20.23;;;18.60;81.60;;;;;;5061928;28;20460;-78
2023/08/30 08:44:52;;;;;;;24.70;19.93;;;18.70;81.60;;;;;;5069519;28;20477;-80
2023/08/30 08:47:21;;;;;;;23.30;19.10;;;18.70;81.40;;;;;;5067264;28;21148;-78
2023/08/30 08:49:51;;;;;;;23.37;18.50;;;18.70;81.60;;;;;;5070698;28;20504;-80
2023/08/30 08:52:20;;;;;;;22.60;18.07;;;18.80;81.30;;;;;;5067134;28;20449;-79
2023/08/30 08:55:02;;;;;;;25.00;20.57;;;18.80;81.30;;;;;;5073264;28;20444;-79
2023/08/30 08:57:32;;;;;;;34.30;20.50;;;18.80;81.30;;;;;;5069672;28;21783;-77
2023/08/30 09:00:00;;;;;;;24.80;19.30;;;18.90;81.20;;;;;;5068839;28;20477;-79
2023/08/30 09:02:29;;;;;;;23.30;19.93;;;18.90;81.30;;;;;;5085106;28;20831;-79
2023/08/30 09:05:00;;;;;;;24.50;18.13;;;18.90;81.20;;;;;;5083337;28;20473;-79
2023/08/30 09:07:29;;;;;;;21.87;17.53;;;18.90;81.10;;;;;;5080346;28;20500;-81
2023/08/30 09:09:58;;;;;;;21.20;17.70;;;18.90;81.00;;;;;;5083698;28;20457;-79
2023/08/30 09:12:26;;;;;;;22.00;18.97;;;19.00;81.00;;;;;;5083543;28;20649;-78
2023/08/30 09:14:55;;;;;;;21.87;18.50;;;19.00;81.00;;;;;;5081674;28;20463;-78
2023/08/30 09:17:23;;;;;;;25.43;19.03;;;19.00;81.00;;;;;;5080470;28;20478;-81
2023/08/30 09:19:51;;;;;;;22.53;17.70;;;19.00;80.90;;;;;;5087502;28;20488;-79
2023/08/30 09:22:21;;;;;;;24.07;18.47;;;19.10;80.90;;;;;;5082871;28;20468;-80
2023/08/30 09:24:48;;;;;;;23.30;18.63;;;19.10;80.90;;;;;;5088749;28;20468;-78
2023/08/30 09:27:17;;;;;;;22.50;18.43;;;19.10;81.00;;;;;;5077862;28;20460;-79
2023/08/30 09:29:45;;;;;;;21.50;18.03;;;19.20;80.80;;;;;;5090538;28;20456;-79
2023/08/30 09:32:14;;;;;;;21.20;16.67;;;19.20;80.70;;;;;;5086408;28;20500;-80
2023/08/30 09:34:48;;;;;;;27.37;19.40;;;19.20;80.70;;;;;;5086214;28;20445;-82
2023/08/30 09:37:26;;;;;;;23.10;16.93;;;19.30;80.60;;;;;;5084454;28;20468;-79
2023/08/30 09:39:54;;;;;;;23.73;17.63;;;19.30;80.50;;;;;;5088938;28;20521;-80
2023/08/30 09:42:23;;;;;;;23.83;17.60;;;19.40;80.40;;;;;;5087734;28;20575;-80
2023/08/30 09:44:51;;;;;;;21.03;16.77;;;19.40;80.40;;;;;;5086559;28;20556;-80
2023/08/30 09:47:20;;;;;;;23.67;16.60;;;19.50;80.30;;;;;;5086000;28;20452;-78
2023/08/30 09:49:49;;;;;;;17.70;14.80;;;19.50;80.10;;;;;;5087272;28;20931;-78
2023/08/30 09:52:19;;;;;;;18.70;15.83;;;19.50;80.10;;;;;;5087197;28;20486;-80
2023/08/30 09:54:48;;;;;;;19.53;15.97;;;19.50;80.10;;;;;;5085335;28;20460;-79
2023/08/30 09:57:16;;;;;;;18.80;15.70;;;19.60;80.10;;;;;;5084721;28;20445;-80
2023/08/30 09:59:45;;;;;;;20.20;16.97;;;19.60;80.10;;;;;;5085017;28;20808;-77
2023/08/30 10:02:14;;;;;;;18.97;13.73;;;19.60;80.00;;;;;;5082932;28;20493;-81
2023/08/30 10:04:44;;;;;;;17.47;14.47;;;19.70;79.90;;;;;;5090500;28;20525;-80
2023/08/30 10:07:12;;;;;;;17.47;14.10;;;19.70;79.90;;;;;;5085701;28;20453;-80
2023/08/30 10:09:42;;;;;;;16.67;14.10;;;19.70;79.80;;;;;;5087561;28;20457;-81
2023/08/30 10:12:33;;;;;;;16.97;13.97;;;19.80;79.80;;;;;;5084912;28;20967;-78
2023/08/30 10:15:01;;;;;;;14.70;12.37;;;19.80;79.50;;;;;;5086975;28;20697;-79
2023/08/30 10:17:33;;;;;;;13.87;12.20;;;19.90;79.40;;;;;;5086689;28;20451;-79
2023/08/30 10:20:05;;;;;;;16.90;14.00;;;19.90;79.30;;;;;;5086269;28;20463;-81
2023/08/30 10:22:37;;;;;;;15.73;13.33;;;19.90;79.20;;;;;;5086788;28;20484;-79
2023/08/30 10:25:10;;;;;;;18.50;14.57;;;19.90;79.00;;;;;;5083932;28;20539;-81
2023/08/30 10:27:44;;;;;;;15.80;13.83;;;19.90;78.60;;;;;;5086203;28;20811;-79
2023/08/30 10:30:14;;;;;;;21.27;12.57;;;19.90;78.60;;;;;;5099630;28;20445;-80
2023/08/30 10:32:49;;;;;;;16.63;14.90;;;19.80;78.60;;;;;;5086414;28;20544;-80
2023/08/30 10:35:19;;;;;;;15.67;13.83;;;19.80;78.70;;;;;;5081743;28;20449;-80
2023/08/30 10:37:57;;;;;;;16.40;14.57;;;19.80;78.70;;;;;;5080393;28;21366;-79
2023/08/30 10:40:26;;;;;;;16.87;14.57;;;19.80;78.70;;;;;;5083316;28;20467;-78
2023/08/30 10:43:03;;;;;;;18.20;15.73;;;19.80;78.70;;;;;;5082643;28;20879;-78
2023/08/30 10:45:31;;;;;;;16.33;12.97;;;19.80;78.80;;;;;;5090480;28;20540;-77
2023/08/30 10:48:00;;;;;;;16.43;13.87;;;19.70;78.90;;;;;;5087980;28;20934;-77
2023/08/30 10:50:30;;;;;;;16.90;14.30;;;19.80;78.90;;;;;;5082979;28;20457;-77
2023/08/30 10:52:58;;;;;;;15.20;13.03;;;19.80;78.90;;;;;;5085346;28;20440;-78
2023/08/30 10:55:27;;;;;;;16.13;12.60;;;19.80;78.90;;;;;;5088335;28;21103;-77
2023/08/30 10:58:04;;;;;;;14.57;12.60;;;19.80;79.00;;;;;;5084483;28;20468;-77
2023/08/30 11:00:33;;;;;;;15.63;12.03;;;19.80;79.00;;;;;;5075473;28;20971;-78
2023/08/30 11:03:01;;;;;;;14.83;12.30;;;19.80;79.00;;;;;;5083233;28;21017;-77
2023/08/30 11:05:30;;;;;;;12.60;10.73;;;19.80;79.10;;;;;;5084167;28;20487;-78
2023/08/30 11:07:59;;;;;;;13.50;11.53;;;19.90;79.10;;;;;;5082464;28;20620;-78
2023/08/30 11:10:27;;;;;;;12.37;10.23;;;19.90;79.20;;;;;;5086594;28;20453;-80
2023/08/30 11:12:57;;;;;;;16.43;10.90;;;19.90;79.20;;;;;;5085419;28;20491;-78
2023/08/30 11:15:27;;;;;;;12.40;10.13;;;20.00;79.20;;;;;;5086058;28;20448;-79
2023/08/30 11:18:03;;;;;;;14.50;10.27;;;20.00;79.30;;;;;;5084576;28;20798;-79
2023/08/30 11:20:32;;;;;;;11.87;9.87;;;20.10;79.20;;;;;;5083455;28;20483;-78
2023/08/30 11:23:03;;;;;;;13.60;10.40;;;20.20;79.20;;;;;;5100338;28;20487;-79
2023/08/30 11:25:31;;;;;;;10.37;7.80;;;20.20;79.10;;;;;;5086507;28;20464;-78
2023/08/30 11:28:03;;;;;;;11.37;8.30;;;20.30;78.80;;;;;;5086298;28;21259;-77
2023/08/30 11:30:32;;;;;;;10.50;7.80;;;20.30;78.40;;;;;;5082912;28;20471;-78
2023/08/30 11:33:00;;;;;;;10.70;8.03;;;20.40;77.90;;;;;;5070878;28;20469;-77
2023/08/30 11:35:29;;;;;;;10.53;7.70;;;20.40;77.50;;;;;;5083600;28;20815;-78
2023/08/30 11:37:57;;;;;;;11.00;8.00;;;20.50;77.50;;;;;;5070375;28;20458;-78
2023/08/30 11:40:25;;;;;;;11.67;8.93;;;20.50;77.50;;;;;;5069487;28;20461;-78
2023/08/30 11:42:54;;;;;;;11.07;7.70;;;20.60;77.40;;;;;;5065468;28;20480;-80
2023/08/30 11:45:23;;;;;;;11.90;8.60;;;20.70;77.30;;;;;;5067564;28;20458;-79
2023/08/30 11:47:53;;;;;;;10.77;7.37;;;20.70;77.10;;;;;;5063678;28;21052;-77
2023/08/30 11:50:21;;;;;;;9.10;7.43;;;20.80;76.90;;;;;;5070009;28;20454;-78
2023/08/30 11:52:53;;;;;;;9.00;7.07;;;20.90;76.60;;;;;;5067761;28;20450;-78
2023/08/30 11:55:22;;;;;;;9.17;7.00;;;20.90;76.40;;;;;;5070140;28;20776;-79
2023/08/30 11:57:50;;;;;;;9.40;7.20;;;21.00;76.30;;;;;;5066568;28;20820;-78
2023/08/30 12:00:20;;;;;;;9.27;6.37;;;21.00;75.90;;;;;;5070721;28;20458;-78
2023/08/30 12:02:48;;;;;;;10.97;7.03;;;21.00;75.60;;;;;;5086958;28;20492;-78
2023/08/30 12:05:17;;;;;;;7.40;5.90;;;21.10;75.60;;;;;;5079967;28;20449;-78
2023/08/30 12:07:47;;;;;;;9.70;5.60;;;21.10;75.40;;;;;;5077998;28;20492;-77
2023/08/30 12:10:19;;;;;;;9.67;5.43;;;21.10;75.40;;;;;;5085535;28;20448;-78
2023/08/30 12:12:47;;;;;;;8.83;6.10;;;21.20;75.20;;;;;;5086007;28;20978;-76
2023/08/30 12:15:16;;;;;;;6.93;4.80;;;21.20;75.20;;;;;;5085678;28;20460;-78
2023/08/30 12:17:44;;;;;;;6.37;4.93;;;21.30;74.90;;;;;;5082064;28;20475;-78
2023/08/30 12:20:20;;;;;;;9.13;6.03;;;21.30;74.60;;;;;;5084329;28;20465;-79
2023/08/30 12:22:50;;;;;;;8.63;6.80;;;21.20;74.30;;;;;;5083983;28;20472;-79
2023/08/30 12:25:20;;;;;;;9.10;6.87;;;21.20;74.30;;;;;;5084494;28;20547;-78
2023/08/30 12:27:49;;;;;;;7.20;5.47;;;21.10;74.30;;;;;;5083785;28;20480;-79
2023/08/30 12:30:17;;;;;;;8.10;4.70;;;21.10;74.10;;;;;;5082305;28;20461;-77
2023/08/30 12:32:46;;;;;;;10.53;5.20;;;21.20;73.80;;;;;;5085478;28;20548;-79
2023/08/30 12:35:14;;;;;;;7.53;4.77;;;21.20;73.60;;;;;;5082699;28;20452;-78
2023/08/30 12:37:44;;;;;;;6.70;4.20;;;21.20;73.30;;;;;;5081994;28;20449;-78
2023/08/30 12:40:13;;;;;;;7.00;4.30;;;21.20;73.30;;;;;;5083058;28;20968;-78
2023/08/30 12:42:41;;;;;;;7.43;4.53;;;21.30;73.00;;;;;;5084043;28;21020;-77
2023/08/30 12:45:10;;;;;;;6.70;4.00;;;21.20;72.80;;;;;;5081286;28;20461;-77
2023/08/30 12:47:38;;;;;;;6.60;4.60;;;21.20;72.60;;;;;;5084449;28;20480;-79
2023/08/30 12:50:08;;;;;;;6.20;3.77;;;21.20;72.30;;;;;;5084115;28;20837;-78